Hatsu Envoy — VSQL9 — position and weather

sailwx.info

Track history (hours):
 
Tides and Currents Weather Stations Pressure Air Temp Water Temp Dewpoint Dewpoint Depression Visibility Wind Speed Wind Dir Waves Ship Positions

Hatsu Envoy

Last reported at 2014-Sep-22 11:20 UTC. Time now 2014-Oct-02 12:28 UTC.
Position N 33°50' E 129°16'.
Warning: this ship's position is 10 days out of date.

Type: Ship (hazmat cat D). MMSI: 235414000.

Date/timePositionNaut miles runAvg speedWind from/ knotsBaromVisibWave heightAir tempDewpointWater temp
2014-Sep-22 11:20N 33°50' E 129°16'41717.5
2014-Sep-21 11:33N 29°48' E 122°37'1414.5
2014-Sep-21 10:33N 29°44' E 122°21'10 9.7
2014-Sep-21 09:33N 29°50' E 122°12'9 8.9
2014-Sep-21 08:33N 29°54' E 122°03'1 0.9
2014-Sep-21 07:31N 29°53' E 122°03'0 0.0
2014-Sep-21 06:31N 29°53' E 122°03'0 0.0
2014-Sep-21 05:25N 29°53' E 122°03'0 0.0
2014-Sep-21 04:25N 29°53' E 122°03'0 0.0
2014-Sep-21 03:07N 29°53' E 122°03'0 0.0
2014-Sep-21 02:25N 29°53' E 122°03'0 0.0
2014-Sep-21 01:31N 29°53' E 122°03'0 0.0
2014-Sep-21 00:25N 29°53' E 122°03'0 0.0
2014-Sep-20 23:25N 29°53' E 122°03'0 0.0
2014-Sep-20 22:25N 29°53' E 122°03'0 0.0
2014-Sep-20 21:30N 29°53' E 122°03'0 0.0
2014-Sep-20 20:29N 29°53' E 122°03'0 0.0
2014-Sep-20 19:32N 29°53' E 122°03'0 0.0
2014-Sep-20 18:32N 29°53' E 122°03'0 0.0
2014-Sep-20 17:33N 29°53' E 122°03'0 0.0
2014-Sep-20 16:33N 29°53' E 122°03'6 6.5
2014-Sep-20 15:33N 29°55' E 122°10'1211.9
2014-Sep-20 14:33N 29°46' E 122°18'6 5.5
2014-Sep-20 13:33N 29°46' E 122°25'0 0.0
2014-Sep-20 09:19N 29°45' E 122°25'0 0.0
2014-Sep-20 07:33N 29°45' E 122°25'0 0.1
2014-Sep-20 06:33N 29°45' E 122°25'0 0.0
2014-Sep-20 05:33N 29°45' E 122°25'0 0.1
2014-Sep-20 04:33N 29°45' E 122°25'0 0.1
2014-Sep-20 03:33N 29°45' E 122°25'5 5.4
2014-Sep-20 02:33N 29°46' E 122°31'1312.6
2014-Sep-20 01:33N 29°50' E 122°45'5711.2
2014-Sep-19 20:31N 30°44' E 123°03'1312.6
2014-Sep-19 19:27N 30°57' E 122°58'2912.9
2014-Sep-19 17:15N 31°06' E 122°26'912.9
2014-Sep-19 16:32N 31°08' E 122°15'1512.7
2014-Sep-19 15:20N 31°15' E 121°59'1012.8
2014-Sep-19 14:32N 31°17' E 121°48'1212.3
2014-Sep-19 13:33N 31°23' E 121°35'1 0.3
2014-Sep-19 11:29N 31°23' E 121°35'0 0.0
2014-Sep-19 10:29N 31°23' E 121°35'0 0.0
2014-Sep-19 09:23N 31°23' E 121°35'0 0.0
2014-Sep-19 08:29N 31°23' E 121°35'0 0.0
2014-Sep-19 07:17N 31°23' E 121°35'0 0.0
2014-Sep-19 06:29N 31°23' E 121°35'0 0.0
2014-Sep-19 05:17N 31°23' E 121°35'0 0.0
2014-Sep-19 04:29N 31°23' E 121°35'0 0.0
2014-Sep-19 03:11N 31°23' E 121°35'0 0.0
2014-Sep-19 02:29N 31°23' E 121°35'0 0.2
2014-Sep-19 01:33N 31°23' E 121°35'8 8.1
2014-Sep-19 00:33N 31°19' E 121°43'10 9.9
2014-Sep-18 23:32N 31°16' E 121°54'25 8.4
2014-Sep-18 20:33N 31°06' E 122°21'13 9.9
2014-Sep-18 19:11N 31°06' E 122°37'812.3
2014-Sep-18 18:33N 31°06' E 122°46'1413.3
2014-Sep-18 17:32N 30°57' E 122°58'1615.0
2014-Sep-18 16:30N 30°42' E 123°02'1515.1
2014-Sep-18 15:32N 30°28' E 123°07'2014.5
2014-Sep-18 14:10N 30°08' E 123°08'47014.9
2014-Sep-17 06:34N 22°51' E 119°55'1616.0
2014-Sep-17 05:33N 22°36' E 120°01'1414.1
2014-Sep-17 04:33N 22°33' E 120°16'3 1.0
2014-Sep-17 01:33N 22°33' E 120°19'0 0.0
2014-Sep-17 00:33N 22°33' E 120°19'0 0.0
2014-Sep-16 23:21N 22°33' E 120°19'0 0.0
2014-Sep-16 22:33N 22°33' E 120°19'0 0.0
2014-Sep-16 21:21N 22°33' E 120°19'0 0.0
2014-Sep-16 20:27N 22°33' E 120°19'0 0.0
2014-Sep-16 19:33N 22°33' E 120°19'0 0.0
2014-Sep-16 18:33N 22°33' E 120°19'0 0.0
2014-Sep-16 17:33N 22°33' E 120°19'0 0.0
2014-Sep-16 16:33N 22°33' E 120°19'0 0.0
2014-Sep-16 15:27N 22°33' E 120°19'0 0.0
2014-Sep-16 14:27N 22°33' E 120°19'0 0.0
2014-Sep-16 13:33N 22°33' E 120°19'0 0.0
2014-Sep-16 12:33N 22°33' E 120°19'0 0.0
2014-Sep-16 11:33N 22°33' E 120°19'0 0.0
2014-Sep-16 10:33N 22°33' E 120°19'0 0.0
2014-Sep-16 09:33N 22°33' E 120°19'0 0.0
2014-Sep-16 08:27N 22°33' E 120°19'0 0.0
2014-Sep-16 07:33N 22°33' E 120°19'0 0.0
2014-Sep-16 06:33N 22°33' E 120°19'0 0.0
2014-Sep-16 05:33N 22°33' E 120°19'0 0.0
2014-Sep-16 04:33N 22°33' E 120°19'0 0.0
2014-Sep-16 01:33N 22°33' E 120°19'0 0.1
2014-Sep-16 00:33N 22°33' E 120°19'0 0.1
2014-Sep-15 23:33N 22°33' E 120°19'3 2.9
2014-Sep-15 22:33N 22°32' E 120°16'5 4.8
2014-Sep-15 21:33N 22°32' E 120°11'10 9.5
2014-Sep-15 20:33N 22°30' E 120°01'1514.6
2014-Sep-15 19:33N 22°29' E 119°45'31413.4
2014-Sep-14 20:04N 22°18' E 114°06'3 0.2
2014-Sep-14 03:12N 22°20' E 114°08'16 2.1
2014-Sep-13 19:30N 22°34' E 114°16'0 0.2
2014-Sep-13 18:30N 22°34' E 114°16'0 0.0
2014-Sep-13 17:30N 22°34' E 114°16'0 0.0
2014-Sep-13 16:24N 22°34' E 114°16'0 0.0
2014-Sep-13 15:30N 22°34' E 114°16'0 0.0
2014-Sep-13 14:30N 22°34' E 114°16'0 0.0
2014-Sep-13 13:30N 22°34' E 114°16'0 0.0
2014-Sep-13 12:24N 22°34' E 114°16'0 0.0
2014-Sep-13 10:18N 22°34' E 114°16'0 0.0
2014-Sep-13 09:24N 22°34' E 114°16'0 0.0
2014-Sep-13 08:31N 22°34' E 114°16'0 0.0
2014-Sep-13 07:30N 22°34' E 114°16'0 0.0
2014-Sep-13 06:18N 22°34' E 114°16'0 0.0
2014-Sep-13 04:30N 22°34' E 114°16'0 0.0
2014-Sep-13 03:12N 22°34' E 114°16'0 0.0
2014-Sep-13 02:33N 22°34' E 114°16'  
Track history (hours):
 
Tides and Currents Weather Stations Pressure Air Temp Water Temp Dewpoint Dewpoint Depression Visibility Wind Speed Wind Dir Waves Ship Positions

Hatsu Envoy

Last reported at 2014-Sep-22 11:20 UTC. Time now 2014-Oct-02 12:28 UTC.
Position N 33°50' E 129°16'.
Warning: this ship's position is 10 days out of date.

Type: Ship (hazmat cat D). MMSI: 235414000.

Date/timePositionNaut miles runAvg speedWind from/ knotsBaromVisibWave heightAir tempDewpointWater temp
2014-Sep-22 11:20N 33°50' E 129°16'41717.5
2014-Sep-21 11:33N 29°48' E 122°37'1414.5
2014-Sep-21 10:33N 29°44' E 122°21'10 9.7
2014-Sep-21 09:33N 29°50' E 122°12'9 8.9
2014-Sep-21 08:33N 29°54' E 122°03'1 0.9
2014-Sep-21 07:31N 29°53' E 122°03'0 0.0
2014-Sep-21 06:31N 29°53' E 122°03'0 0.0
2014-Sep-21 05:25N 29°53' E 122°03'0 0.0
2014-Sep-21 04:25N 29°53' E 122°03'0 0.0
2014-Sep-21 03:07N 29°53' E 122°03'0 0.0
2014-Sep-21 02:25N 29°53' E 122°03'0 0.0
2014-Sep-21 01:31N 29°53' E 122°03'0 0.0
2014-Sep-21 00:25N 29°53' E 122°03'0 0.0
2014-Sep-20 23:25N 29°53' E 122°03'0 0.0
2014-Sep-20 22:25N 29°53' E 122°03'0 0.0
2014-Sep-20 21:30N 29°53' E 122°03'0 0.0
2014-Sep-20 20:29N 29°53' E 122°03'0 0.0
2014-Sep-20 19:32N 29°53' E 122°03'0 0.0
2014-Sep-20 18:32N 29°53' E 122°03'0 0.0
2014-Sep-20 17:33N 29°53' E 122°03'0 0.0
2014-Sep-20 16:33N 29°53' E 122°03'6 6.5
2014-Sep-20 15:33N 29°55' E 122°10'1211.9
2014-Sep-20 14:33N 29°46' E 122°18'6 5.5
2014-Sep-20 13:33N 29°46' E 122°25'0 0.0
2014-Sep-20 09:19N 29°45' E 122°25'0 0.0
2014-Sep-20 07:33N 29°45' E 122°25'0 0.1
2014-Sep-20 06:33N 29°45' E 122°25'0 0.0
2014-Sep-20 05:33N 29°45' E 122°25'0 0.1
2014-Sep-20 04:33N 29°45' E 122°25'0 0.1
2014-Sep-20 03:33N 29°45' E 122°25'5 5.4
2014-Sep-20 02:33N 29°46' E 122°31'1312.6
2014-Sep-20 01:33N 29°50' E 122°45'5711.2
2014-Sep-19 20:31N 30°44' E 123°03'1312.6
2014-Sep-19 19:27N 30°57' E 122°58'2912.9
2014-Sep-19 17:15N 31°06' E 122°26'912.9
2014-Sep-19 16:32N 31°08' E 122°15'1512.7
2014-Sep-19 15:20N 31°15' E 121°59'1012.8
2014-Sep-19 14:32N 31°17' E 121°48'1212.3
2014-Sep-19 13:33N 31°23' E 121°35'1 0.3
2014-Sep-19 11:29N 31°23' E 121°35'0 0.0
2014-Sep-19 10:29N 31°23' E 121°35'0 0.0
2014-Sep-19 09:23N 31°23' E 121°35'0 0.0
2014-Sep-19 08:29N 31°23' E 121°35'0 0.0
2014-Sep-19 07:17N 31°23' E 121°35'0 0.0
2014-Sep-19 06:29N 31°23' E 121°35'0 0.0
2014-Sep-19 05:17N 31°23' E 121°35'0 0.0
2014-Sep-19 04:29N 31°23' E 121°35'0 0.0
2014-Sep-19 03:11N 31°23' E 121°35'0 0.0
2014-Sep-19 02:29N 31°23' E 121°35'0 0.2
2014-Sep-19 01:33N 31°23' E 121°35'8 8.1
2014-Sep-19 00:33N 31°19' E 121°43'10 9.9
2014-Sep-18 23:32N 31°16' E 121°54'25 8.4
2014-Sep-18 20:33N 31°06' E 122°21'13 9.9
2014-Sep-18 19:11N 31°06' E 122°37'812.3
2014-Sep-18 18:33N 31°06' E 122°46'1413.3
2014-Sep-18 17:32N 30°57' E 122°58'1615.0
2014-Sep-18 16:30N 30°42' E 123°02'1515.1
2014-Sep-18 15:32N 30°28' E 123°07'2014.5
2014-Sep-18 14:10N 30°08' E 123°08'47014.9
2014-Sep-17 06:34N 22°51' E 119°55'1616.0
2014-Sep-17 05:33N 22°36' E 120°01'1414.1
2014-Sep-17 04:33N 22°33' E 120°16'3 1.0
2014-Sep-17 01:33N 22°33' E 120°19'0 0.0
2014-Sep-17 00:33N 22°33' E 120°19'0 0.0
2014-Sep-16 23:21N 22°33' E 120°19'0 0.0
2014-Sep-16 22:33N 22°33' E 120°19'0 0.0
2014-Sep-16 21:21N 22°33' E 120°19'0 0.0
2014-Sep-16 20:27N 22°33' E 120°19'0 0.0
2014-Sep-16 19:33N 22°33' E 120°19'0 0.0
2014-Sep-16 18:33N 22°33' E 120°19'0 0.0
2014-Sep-16 17:33N 22°33' E 120°19'0 0.0
2014-Sep-16 16:33N 22°33' E 120°19'0 0.0
2014-Sep-16 15:27N 22°33' E 120°19'0 0.0
2014-Sep-16 14:27N 22°33' E 120°19'0 0.0
2014-Sep-16 13:33N 22°33' E 120°19'0 0.0
2014-Sep-16 12:33N 22°33' E 120°19'0 0.0
2014-Sep-16 11:33N 22°33' E 120°19'0 0.0
2014-Sep-16 10:33N 22°33' E 120°19'0 0.0
2014-Sep-16 09:33N 22°33' E 120°19'0 0.0
2014-Sep-16 08:27N 22°33' E 120°19'0 0.0
2014-Sep-16 07:33N 22°33' E 120°19'0 0.0
2014-Sep-16 06:33N 22°33' E 120°19'0 0.0
2014-Sep-16 05:33N 22°33' E 120°19'0 0.0
2014-Sep-16 04:33N 22°33' E 120°19'0 0.0
2014-Sep-16 01:33N 22°33' E 120°19'0 0.1
2014-Sep-16 00:33N 22°33' E 120°19'0 0.1
2014-Sep-15 23:33N 22°33' E 120°19'3 2.9
2014-Sep-15 22:33N 22°32' E 120°16'5 4.8
2014-Sep-15 21:33N 22°32' E 120°11'10 9.5
2014-Sep-15 20:33N 22°30' E 120°01'1514.6
2014-Sep-15 19:33N 22°29' E 119°45'31413.4
2014-Sep-14 20:04N 22°18' E 114°06'3 0.2
2014-Sep-14 03:12N 22°20' E 114°08'16 2.1
2014-Sep-13 19:30N 22°34' E 114°16'0 0.2
2014-Sep-13 18:30N 22°34' E 114°16'0 0.0
2014-Sep-13 17:30N 22°34' E 114°16'0 0.0
2014-Sep-13 16:24N 22°34' E 114°16'0 0.0
2014-Sep-13 15:30N 22°34' E 114°16'0 0.0
2014-Sep-13 14:30N 22°34' E 114°16'0 0.0
2014-Sep-13 13:30N 22°34' E 114°16'0 0.0
2014-Sep-13 12:24N 22°34' E 114°16'0 0.0
2014-Sep-13 10:18N 22°34' E 114°16'0 0.0
2014-Sep-13 09:24N 22°34' E 114°16'0 0.0
2014-Sep-13 08:31N 22°34' E 114°16'0 0.0
2014-Sep-13 07:30N 22°34' E 114°16'0 0.0
2014-Sep-13 06:18N 22°34' E 114°16'0 0.0
2014-Sep-13 04:30N 22°34' E 114°16'0 0.0
2014-Sep-13 03:12N 22°34' E 114°16'0 0.0
2014-Sep-13 02:33N 22°34' E 114°16'  

Dump ship's entire track history